Map

Track Data

SID SEASON NUMBER BASIN SUBBASIN NAME ISO_TIME NATURE LAT LON WMO_WIND WMO_PRES WMO_AGENCY TRACK_TYPE DIST2LAND LANDFALL IFLAG USA_AGENCY USA_ATCF_ID USA_LAT USA_LON USA_RECORD USA_STATUS USA_WIND USA_PRES USA_SSHS USA_R34_NE USA_R34_SE USA_R34_SW USA_R34_NW USA_R50_NE USA_R50_SE USA_R50_SW USA_R50_NW USA_R64_NE USA_R64_SE USA_R64_SW USA_R64_NW USA_POCI USA_ROCI USA_RMW USA_EYE TOKYO_LAT TOKYO_LON TOKYO_GRADE TOKYO_WIND TOKYO_PRES TOKYO_R50_DIR TOKYO_R50_LONG TOKYO_R50_SHORT TOKYO_R30_DIR TOKYO_R30_LONG TOKYO_R30_SHORT TOKYO_LAND CMA_LAT CMA_LON CMA_CAT CMA_WIND CMA_PRES HKO_LAT HKO_LON HKO_CAT HKO_WIND HKO_PRES NEWDELHI_LAT NEWDELHI_LON NEWDELHI_GRADE NEWDELHI_WIND NEWDELHI_PRES NEWDELHI_CI NEWDELHI_DP NEWDELHI_POCI REUNION_LAT REUNION_LON REUNION_TYPE REUNION_WIND REUNION_PRES REUNION_TNUM REUNION_CI REUNION_RMW REUNION_R34_NE REUNION_R34_SE REUNION_R34_SW REUNION_R34_NW REUNION_R50_NE REUNION_R50_SE REUNION_R50_SW REUNION_R50_NW REUNION_R64_NE REUNION_R64_SE REUNION_R64_SW REUNION_R64_NW BOM_LAT BOM_LON BOM_TYPE BOM_WIND BOM_PRES BOM_TNUM BOM_CI BOM_RMW BOM_R34_NE BOM_R34_SE BOM_R34_SW BOM_R34_NW BOM_R50_NE BOM_R50_SE BOM_R50_SW BOM_R50_NW BOM_R64_NE BOM_R64_SE BOM_R64_SW BOM_R64_NW BOM_ROCI BOM_POCI BOM_EYE BOM_POS_METHOD BOM_PRES_METHOD NADI_LAT NADI_LON NADI_CAT NADI_WIND NADI_PRES WELLINGTON_LAT WELLINGTON_LON WELLINGTON_WIND WELLINGTON_PRES DS824_LAT DS824_LON DS824_STAGE DS824_WIND DS824_PRES TD9636_LAT TD9636_LON TD9636_STAGE TD9636_WIND TD9636_PRES TD9635_LAT TD9635_LON TD9635_WIND TD9635_PRES TD9635_ROCI NEUMANN_LAT NEUMANN_LON NEUMANN_CLASS NEUMANN_WIND NEUMANN_PRES MLC_LAT MLC_LON MLC_CLASS MLC_WIND MLC_PRES USA_GUST BOM_GUST BOM_GUST_PER REUNION_GUST REUNION_GUST_PER USA_SEAHGT USA_SEARAD_NE USA_SEARAD_SE USA_SEARAD_SW USA_SEARAD_NW STORM_SPEED STORM_DIR
1979168N13116 1979 44 WP MM NOT_NAMED 1979-06-17 00:00:00 TS 13.0000 116.000 main 421 421 __O___________ -1 13.0000 116.000 0 17 1007 7 302
1979168N13116 1979 44 WP MM NOT_NAMED 1979-06-17 03:00:00 TS 13.1950 115.675 main 460 460 __P___________ -1 13.1950 115.675 0 20 1006 8 300
1979168N13116 1979 44 WP MM NOT_NAMED 1979-06-17 06:00:00 TS 13.4000 115.300 main 509 509 __O___________ -1 13.4000 115.300 1 23 1006 9 298
1979168N13116 1979 44 WP MM NOT_NAMED 1979-06-17 09:00:00 TS 13.6151 114.850 main 557 539 __P___________ -1 13.6151 114.850 1 26 1005 10 295
1979168N13116 1979 44 WP MM NOT_NAMED 1979-06-17 12:00:00 TS 13.8000 114.400 main 539 510 __O___________ -1 13.8000 114.400 1 29 1004 8 290
1979168N13116 1979 44 WP MM NOT_NAMED 1979-06-17 15:00:00 TS 13.8999 114.035 main 499 470 __P___________ -1 13.8999 114.035 1 29 1004 7 286
1979168N13116 1979 44 WP MM NOT_NAMED 1979-06-17 18:00:00 TS 14.0000 113.700 main 470 442 __O___________ -1 14.0000 113.700 1 29 1004 7 294
1979168N13116 1979 44 WP MM NOT_NAMED 1979-06-17 21:00:00 TS 14.2000 113.335 main 432 403 __P___________ -1 14.2000 113.335 1 26 1004 8 301
1979168N13116 1979 44 WP MM NOT_NAMED 1979-06-18 00:00:00 TS 14.4000 113.000 main 403 383 __O___________ -1 14.4000 113.000 1 23 1004 6 298
1979168N13116 1979 44 WP MM NOT_NAMED 1979-06-18 03:00:00 TS 14.4999 112.750 main 372 353 __P___________ -1 14.4999 112.750 1 23 1004 5 292
1979168N13116 1979 44 WP MM NOT_NAMED 1979-06-18 06:00:00 TS 14.6000 112.500 main 353 325 __O___________ -1 14.6000 112.500 1 23 1004 6 296
1979168N13116 1979 44 WP MM NOT_NAMED 1979-06-18 09:00:00 TS 14.7775 112.172 main 328 292 __P___________ -1 14.7775 112.172 1 23 1004 8 301
1979168N13116 1979 44 WP MM NOT_NAMED 1979-06-18 12:00:00 TS 15.0000 111.800 main 292 253 __O___________ -1 15.0000 111.800 1 23 1004 9 304
1979168N13116 1979 44 WP MM NOT_NAMED 1979-06-18 15:00:00 TS 15.2574 111.423 main 256 222 __P___________ -1 15.2574 111.423 1 23 1004 9 303
1979168N13116 1979 44 WP MM NOT_NAMED 1979-06-18 18:00:00 TS 15.5000 111.000 main 222 180 __O___________ -1 15.5000 111.000 1 23 1004 10 295
1979168N13116 1979 44 WP MM NOT_NAMED 1979-06-18 21:00:00 TS 15.6727 110.477 main 180 135 __P___________ -1 15.6727 110.477 1 23 1004 10 287
1979168N13116 1979 44 WP MM NOT_NAMED 1979-06-19 00:00:00 TS 15.8000 110.000 main 135 116 __O___________ -1 15.8000 110.000 1 23 1004 8 289
1979168N13116 1979 44 WP MM NOT_NAMED 1979-06-19 03:00:00 TS 15.9373 109.697 main 116 108 __P___________ -1 15.9373 109.697 1 23 1004 5 293
1979168N13116 1979 44 WP MM NOT_NAMED 1979-06-19 06:00:00 TS 16.0000 109.500 main 108 85 __O___________ -1 16.0000 109.500 1 23 1004 4 270
1979168N13116 1979 44 WP MM NOT_NAMED 1979-06-19 09:00:00 TS 15.9375 109.327 main 85 69 __P___________ -1 15.9375 109.327 1 21 1004 4 235
1979168N13116 1979 44 WP MM NOT_NAMED 1979-06-19 12:00:00 TS 15.8000 109.200 main 69 54 __O___________ -1 15.8000 109.200 0 19 1004 4 222
1979168N13116 1979 44 WP MM NOT_NAMED 1979-06-19 15:00:00 TS 15.6500 109.055 main 46 31 __P___________ -1 15.6500 109.055 0 19 1003 4 213
1979168N13116 1979 44 WP MM NOT_NAMED 1979-06-19 18:00:00 TS 15.5000 109.000 main 31 24 __O___________ -1 15.5000 109.000 0 19 1003 3 165
1979168N13116 1979 44 WP MM NOT_NAMED 1979-06-19 21:00:00 TS 15.3776 109.135 main 31 31 __P___________ -1 15.3776 109.135 0 19 1002 4 125
1979168N13116 1979 44 WP MM NOT_NAMED 1979-06-20 00:00:00 TS 15.3000 109.300 main 44 44 __O___________ -1 15.3000 109.300 0 19 1002 2 121
1979168N13116 1979 44 WP MM NOT_NAMED 1979-06-20 03:00:00 TS 15.2850 109.300 main 44 44 __P___________ -1 15.2850 109.300 0 21 1001 0 0
1979168N13116 1979 44 WP MM NOT_NAMED 1979-06-20 06:00:00 TS 15.3000 109.300 main 44 44 __O___________ -1 15.3000 109.300 1 23 1001 1 90
1979168N13116 1979 44 WP MM NOT_NAMED 1979-06-20 09:00:00 TS 15.2850 109.428 main 54 54 __P___________ -1 15.2850 109.428 1 23 1001 3 90
1979168N13116 1979 44 WP MM NOT_NAMED 1979-06-20 12:00:00 TS 15.3000 109.600 main 75 75 __O___________ -1 15.3000 109.600 1 23 1001 3 72
1979168N13116 1979 44 WP MM NOT_NAMED 1979-06-20 15:00:00 TS 15.3850 109.743 main 88 88 __P___________ -1 15.3850 109.743 1 23 1001 4 55
1979168N13116 1979 44 WP MM NOT_NAMED 1979-06-20 18:00:00 TS 15.5000 109.900 main 112 112 __O___________ -1 15.5000 109.900 1 23 1001 4 58
1979168N13116 1979 44 WP MM NOT_NAMED 1979-06-20 21:00:00 TS 15.6151 110.122 main 136 136 __P___________ -1 15.6151 110.122 1 23 1001 4 63
1979168N13116 1979 44 WP MM NOT_NAMED 1979-06-21 00:00:00 TS 15.7000 110.300 main 160 160 __O___________ -1 15.7000 110.300 1 23 1001 2 68
1979168N13116 1979 44 WP MM NOT_NAMED 1979-06-21 03:00:00 TS 15.7000 110.338 main 160 150 __P___________ -1 15.7000 110.338 1 23 1000 1 306
1979168N13116 1979 44 WP MM NOT_NAMED 1979-06-21 06:00:00 TS 15.7400 110.240 main 150 150 __OO__________ -1 15.7000 110.300 1 23 1000 15.9000 110.000 TD 30 1003 2 308
1979168N13116 1979 44 WP MM NOT_NAMED 1979-06-21 09:00:00 TS 15.8175 110.182 main 154 154 __PP__________ -1 15.8000 110.250 1 23 1000 15.8525 110.045 TD 30 1003 1 325
1979168N13116 1979 44 WP MM NOT_NAMED 1979-06-21 12:00:00 TS 15.8571 110.157 main 159 154 __OO__________ -1 15.9000 110.200 1 23 1000 15.8000 110.100 TD 30 1003 0 0
1979168N13116 1979 44 WP MM NOT_NAMED 1979-06-21 15:00:00 TS 15.8288 110.179 main 154 154 __PP__________ -1 15.9150 110.192 1 23 1000 15.7425 110.165 TD 30 1003 1 146
1979168N13116 1979 44 WP MM NOT_NAMED 1979-06-21 18:00:00 TS 15.8000 110.200 main 154 154 __OO__________ -1 15.9000 110.200 1 23 1000 15.7000 110.200 TD 30 1003 0 0
1979168N13116 1979 44 WP MM NOT_NAMED 1979-06-21 21:00:00 TS 15.7887 110.197 main 154 154 __PP__________ -1 15.8925 110.215 1 26 1000 15.6850 110.180 TD 30 1003 0 270
1979168N13116 1979 44 WP MM NOT_NAMED 1979-06-22 00:00:00 TS 15.8000 110.150 main 154 141 __OO__________ -1 15.9000 110.200 1 29 1000 15.7000 110.100 TD 30 1003 2 294
1979168N13116 1979 44 WP MM NOT_NAMED 1979-06-22 03:00:00 TS 15.8575 110.036 main 141 132 __PP__________ -1 15.9350 110.115 1 29 999 15.7800 109.958 TD 30 1003 3 293
1979168N13116 1979 44 WP MM NOT_NAMED 1979-06-22 06:00:00 TS 15.9000 109.900 main 132 124 __OO__________ -1 16.0000 110.000 1 29 998 15.8000 109.800 TD 30 1003 2 272
1979168N13116 1979 44 WP MM NOT_NAMED 1979-06-22 09:00:00 TS 15.8650 109.781 main 124 108 __PP__________ -1 16.1075 109.885 1 29 998 15.6225 109.677 TD 30 1003 2 243
1979168N13116 1979 44 WP MM NOT_NAMED 1979-06-22 12:00:00 TS 15.8000 109.700 main 108 102 __OO__________ -1 16.2000 109.800 1 29 998 15.4000 109.600 TD 30 1003 2 215
1979168N13116 1979 44 WP MM NOT_NAMED 1979-06-22 15:00:00 TS 15.7387 109.689 main 102 102 __PP__________ -1 16.2000 109.792 1 29 998 15.2775 109.585 TD 30 1003 1 0
1979168N13116 1979 44 WP MM NOT_NAMED 1979-06-22 18:00:00 TS 15.7000 109.700 main 102 102 __OO__________ -1 16.2000 109.800 1 29 998 15.2000 109.600 TD 30 1003 0 0
1979168N13116 1979 44 WP MM NOT_NAMED 1979-06-22 21:00:00 TS 15.7213 109.675 main 102 102 __PP__________ -1 16.3000 109.750 1 26 999 15.1425 109.600 TD 27 1003 1 345
1979168N13116 1979 44 WP MM NOT_NAMED 1979-06-23 00:00:00 TS 15.8429 109.657 main 108 108 __OO__________ -1 16.4000 109.700 1 23 1000 15.1000 109.600 TD 25 1003 2 0
1979168N13116 1979 44 WP MM NOT_NAMED 1979-06-23 03:00:00 TS 15.9658 109.677 main 123 123 __PP__________ -1 16.4225 109.715 1 23 1000 15.0525 109.600 TD 25 1003 3 0
1979168N13116 1979 44 WP MM NOT_NAMED 1979-06-23 06:00:00 TS 16.1200 109.680 main 131 131 __OO__________ -1 16.4000 109.700 1 23 1000 15.0000 109.600 TD 25 1003 4 345
1979168N13116 1979 44 WP MM NOT_NAMED 1979-06-23 09:00:00 TS 16.3575 109.565 main 144 120 __P___________ -1 16.3575 109.565 1 21 1000 TD 3 304
1979168N13116 1979 44 WP MM NOT_NAMED 1979-06-23 12:00:00 TS 16.3000 109.400 main 120 111 __O___________ -1 16.3000 109.400 0 19 1000 3 250
1979168N13116 1979 44 WP MM NOT_NAMED 1979-06-23 15:00:00 TS 16.2650 109.300 main 111 96 __P___________ -1 16.2650 109.300 0 19 1001 2 243
1979168N13116 1979 44 WP MM NOT_NAMED 1979-06-23 18:00:00 TS 16.2000 109.200 main 96 82 __O___________ -1 16.2000 109.200 0 19 1002 3 230
1979168N13116 1979 44 WP MM NOT_NAMED 1979-06-23 21:00:00 TS 16.0650 109.050 main 72 54 __P___________ -1 16.0650 109.050 0 19 1002 4 224
1979168N13116 1979 44 WP MM NOT_NAMED 1979-06-24 00:00:00 TS 15.9000 108.900 main 54 39 __O___________ -1 15.9000 108.900 0 19 1002 4 218
1979168N13116 1979 44 WP MM NOT_NAMED 1979-06-24 03:00:00 TS 15.7450 108.788 main 30 15 __P___________ -1 15.7450 108.788 0 18 1002 4 213
1979168N13116 1979 44 WP MM NOT_NAMED 1979-06-24 06:00:00 TS 15.6000 108.700 main 15 __O___________ -1 15.6000 108.700 0 17 1002 3 210

Digital Typhoon Data and Search

About IBTrACS Database

This database is a web-friendly format of International Best Track Archive for Climate Stewardship (IBTrACS), a global best track data archive curated by NOAA dating back to 1842.

Updated: 2021-12-08